Time;durP1;ratioP1;P1;durP2;ratioP2;P2;SDS_P1;SDS_P2;PMS_P1;PMS_P2;Temp;Humidity;BMP_temperature;BMP_pressure;BME280_temperature;BME280_humidity;BME280_pressure;Samples;Min_cycle;Max_cycle;Signal;HPM_P1;HPM_P2
2021/04/12 00:00:08;;;;;;;23.02;12.70;;;;;;;;;;5075470;28;20403;-89
2021/04/12 00:02:37;;;;;;;20.77;13.20;;;;;;;;;;5058597;28;20532;-89
2021/04/12 00:05:29;;;;;;;22.80;13.00;;;;;;;;;;5075353;28;20024;-89
2021/04/12 00:08:04;;;;;;;22.55;12.90;;;;;;;;;;5071947;28;20048;-89
2021/04/12 00:10:38;;;;;;;20.70;13.82;;;;;;;;;;5058441;28;20485;-89
2021/04/12 00:13:09;;;;;;;22.55;12.77;;;;;;;;;;5078227;28;20024;-88
2021/04/12 00:15:47;;;;;;;20.07;13.30;;;;;;;;;;5074606;27;20038;-88
2021/04/12 00:18:17;;;;;;;23.65;13.52;;;;;;;;;;5141753;27;20027;-92
2021/04/12 00:20:48;;;;;;;26.10;14.48;;;;;;;;;;5141625;27;20054;-86
2021/04/12 00:23:17;;;;;;;21.77;13.18;;;;;;;;;;5141729;27;20120;-88
2021/04/12 00:25:47;;;;;;;22.02;12.93;;;;;;;;;;5140432;27;20035;-87
2021/04/12 00:28:29;;;;;;;18.90;13.20;;;;;;;;;;5141453;27;20039;-87
2021/04/12 00:31:07;;;;;;;21.00;12.55;;;;;;;;;;5141455;27;20019;-87
2021/04/12 00:33:45;;;;;;;20.75;12.88;;;;;;;;;;5141436;27;20317;-87
2021/04/12 00:36:24;;;;;;;20.40;12.68;;;;;;;;;;5141394;27;20106;-88
2021/04/12 00:39:00;;;;;;;20.20;13.10;;;;;;;;;;5141565;27;20412;-88
2021/04/12 00:41:26;;;;;;;22.10;12.93;;;;;;;;;;5141313;27;20325;-89
2021/04/12 00:43:58;;;;;;;19.20;13.05;;;;;;;;;;5140279;27;20041;-89
2021/04/12 00:46:43;;;;;;;22.13;13.95;;;;;;;;;;5140234;27;20347;-89
2021/04/12 00:49:09;;;;;;;19.77;13.02;;;;;;;;;;5141224;27;20028;-89
2021/04/12 00:52:12;;;;;;;20.45;13.10;;;;;;;;;;5140953;27;20023;-90
2021/04/12 00:54:52;;;;;;;21.67;13.82;;;;;;;;;;5141000;27;20393;-91
2021/04/12 00:57:29;;;;;;;23.13;13.60;;;;;;;;;;5141204;27;20325;-90
2021/04/12 01:00:06;;;;;;;26.90;14.55;;;;;;;;;;5140206;27;20027;-90
2021/04/12 01:02:38;;;;;;;23.67;13.35;;;;;;;;;;5139938;27;20023;-90
2021/04/12 01:05:07;;;;;;;22.05;14.13;;;;;;;;;;5139708;27;20051;-91
2021/04/12 01:07:47;;;;;;;22.23;13.15;;;;;;;;;;5140773;27;20055;-91
2021/04/12 01:10:13;;;;;;;21.58;12.73;;;;;;;;;;5139818;27;20461;-90
2021/04/12 01:12:48;;;;;;;23.45;14.02;;;;;;;;;;5140613;27;20110;-90
2021/04/12 01:15:17;;;;;;;23.88;12.63;;;;;;;;;;5140487;27;20030;-90
2021/04/12 01:18:03;;;;;;;19.63;12.52;;;;;;;;;;5140543;27;20034;-90
2021/04/12 01:20:47;;;;;;;25.92;13.15;;;;;;;;;;5140683;27;20058;-90
2021/04/12 01:23:32;;;;;;;21.88;12.20;;;;;;;;;;5139180;27;20088;-90
2021/04/12 01:26:16;;;;;;;19.10;10.73;;;;;;;;;;5140267;27;20023;-90
2021/04/12 01:29:01;;;;;;;18.50;10.68;;;;;;;;;;5140372;27;20030;-86
2021/04/12 01:31:27;;;;;;;16.30;9.75;;;;;;;;;;5139319;27;20069;-86
2021/04/12 01:33:53;;;;;;;19.27;10.52;;;;;;;;;;5139209;27;20035;-86
2021/04/12 01:36:34;;;;;;;12.57;8.60;;;;;;;;;;5139159;27;20027;-86
2021/04/12 01:39:25;;;;;;;15.85;8.68;;;;;;;;;;5140235;27;20027;-90
2021/04/12 01:42:02;;;;;;;13.88;8.25;;;;;;;;;;5140253;27;20075;-89
2021/04/12 01:44:34;;;;;;;13.10;7.70;;;;;;;;;;5139799;27;20068;-90
2021/04/12 01:47:00;;;;;;;;;;;;;;;;;;5140345;27;20358;-92
2021/04/12 01:49:32;;;;;;;16.55;7.43;;;;;;;;;;5140012;27;20273;-90
2021/04/12 01:52:17;;;;;;;13.80;7.85;;;;;;;;;;5139670;27;20023;-92
2021/04/12 01:54:46;;;;;;;13.77;7.32;;;;;;;;;;5139744;27;20030;-90
2021/04/12 01:57:17;;;;;;;11.10;7.55;;;;;;;;;;5139729;27;20027;-90
2021/04/12 02:00:02;;;;;;;12.83;7.17;;;;;;;;;;5139710;27;20047;-90
2021/04/12 02:02:51;;;;;;;11.30;6.97;;;;;;;;;;5139803;27;20505;-90
2021/04/12 02:05:26;;;;;;;14.15;8.07;;;;;;;;;;5139579;27;20031;-90
2021/04/12 02:08:11;;;;;;;17.67;7.93;;;;;;;;;;5138914;27;20026;-90
2021/04/12 02:10:55;;;;;;;12.82;7.18;;;;;;;;;;5138665;27;20050;-90
2021/04/12 02:13:40;;;;;;;11.80;6.78;;;;;;;;;;5139399;27;20389;-90
2021/04/12 02:16:19;;;;;;;18.25;7.82;;;;;;;;;;5139438;27;20035;-91
2021/04/12 02:18:45;;;;;;;13.20;6.82;;;;;;;;;;5138224;27;20059;-90
2021/04/12 02:21:17;;;;;;;14.40;7.53;;;;;;;;;;5138930;27;20062;-88
2021/04/12 02:23:58;;;;;;;13.18;7.28;;;;;;;;;;5139451;27;20023;-90
2021/04/12 02:26:43;;;;;;;12.23;7.60;;;;;;;;;;5139254;27;20340;-89
2021/04/12 02:29:36;;;;;;;12.68;7.50;;;;;;;;;;5139158;27;20023;-89
2021/04/12 02:32:02;;;;;;;12.70;6.82;;;;;;;;;;5059575;28;20028;-90
2021/04/12 02:34:40;;;;;;;12.75;6.97;;;;;;;;;;5059274;28;20329;-90
2021/04/12 02:37:18;;;;;;;11.02;6.38;;;;;;;;;;5059683;28;20082;-88
2021/04/12 02:39:56;;;;;;;11.13;6.90;;;;;;;;;;5076245;28;20032;-88
2021/04/12 02:42:27;;;;;;;13.18;7.07;;;;;;;;;;5076346;28;20163;-87
2021/04/12 02:44:54;;;;;;;11.60;6.65;;;;;;;;;;5076090;28;20027;-88
2021/04/12 02:47:27;;;;;;;12.55;6.68;;;;;;;;;;5076075;28;20029;-87
2021/04/12 02:50:11;;;;;;;13.45;6.43;;;;;;;;;;5075861;28;20033;-88
2021/04/12 02:52:55;;;;;;;15.15;6.80;;;;;;;;;;5076352;28;20087;-87
2021/04/12 02:55:39;;;;;;;10.20;6.15;;;;;;;;;;5075996;28;20036;-87
2021/04/12 02:58:24;;;;;;;15.15;6.63;;;;;;;;;;5076266;28;20025;-88
2021/04/12 03:00:59;;;;;;;11.68;6.45;;;;;;;;;;5075870;28;20048;-87
2021/04/12 03:03:25;;;;;;;13.18;7.15;;;;;;;;;;5059203;28;20040;-87
2021/04/12 03:06:00;;;;;;;11.23;6.30;;;;;;;;;;5076059;28;20031;-89
2021/04/12 03:08:35;;;;;;;12.00;5.95;;;;;;;;;;5097963;28;20031;-86
2021/04/12 03:11:01;;;;;;;9.48;6.30;;;;;;;;;;5137667;28;20044;-90
2021/04/12 03:13:33;;;;;;;13.05;6.82;;;;;;;;;;5138505;28;20062;-88
2021/04/12 03:15:59;;;;;;;10.75;6.20;;;;;;;;;;5138505;28;20442;-88
2021/04/12 03:18:29;;;;;;;15.18;6.20;;;;;;;;;;5138462;28;20027;-88
2021/04/12 03:21:13;;;;;;;11.15;6.32;;;;;;;;;;5137458;28;20055;-88
2021/04/12 03:23:42;;;;;;;10.65;6.35;;;;;;;;;;5138315;28;20030;-89
2021/04/12 03:26:12;;;;;;;11.73;6.70;;;;;;;;;;5138405;28;20015;-89
2021/04/12 03:28:44;;;;;;;13.27;6.60;;;;;;;;;;5138411;28;20024;-89
2021/04/12 03:31:28;;;;;;;11.57;5.80;;;;;;;;;;5137554;28;20031;-89
2021/04/12 03:33:54;;;;;;;9.85;6.03;;;;;;;;;;5138344;28;20027;-89
2021/04/12 03:36:39;;;;;;;8.70;5.28;;;;;;;;;;5138198;28;20027;-89
2021/04/12 03:39:05;;;;;;;9.23;5.53;;;;;;;;;;5137432;28;20067;-89
2021/04/12 03:41:50;;;;;;;10.73;5.57;;;;;;;;;;5137191;28;20046;-89
2021/04/12 03:44:19;;;;;;;12.75;6.28;;;;;;;;;;5138193;28;20317;-91
2021/04/12 03:46:57;;;;;;;12.13;6.80;;;;;;;;;;5139450;27;20058;-89
2021/04/12 03:49:42;;;;;;;13.85;6.38;;;;;;;;;;5142674;27;20145;-90
2021/04/12 03:52:23;;;;;;;11.82;5.90;;;;;;;;;;5142237;27;20030;-90
2021/04/12 03:54:50;;;;;;;13.32;6.38;;;;;;;;;;5142176;27;20087;-90
2021/04/12 03:57:34;;;;;;;14.25;6.57;;;;;;;;;;5141920;27;20056;-90
2021/04/12 04:00:19;;;;;;;13.52;6.05;;;;;;;;;;5141156;27;20164;-88
2021/04/12 04:03:11;;;;;;;17.83;7.35;;;;;;;;;;5141076;27;20063;-88
2021/04/12 04:06:09;;;;;;;12.98;7.18;;;;;;;;;;5141823;27;20064;-88
2021/04/12 04:08:45;;;;;;;12.45;7.97;;;;;;;;;;5078937;28;20028;-88
2021/04/12 04:11:26;;;;;;;17.15;7.57;;;;;;;;;;5078995;28;20029;-88
2021/04/12 04:14:15;;;;;;;13.13;7.25;;;;;;;;;;5078824;28;20027;-88
2021/04/12 04:16:54;;;;;;;11.05;6.57;;;;;;;;;;5061892;28;20028;-89
2021/04/12 04:19:38;;;;;;;13.13;7.00;;;;;;;;;;5061944;28;20328;-88
2021/04/12 04:22:10;;;;;;;15.02;7.60;;;;;;;;;;5078477;28;20058;-88
2021/04/12 04:24:36;;;;;;;;;;;;;;;;;;5079016;28;20044;-89
2021/04/12 04:27:05;;;;;;;14.73;8.02;;;;;;;;;;5078694;28;19908;-89
2021/04/12 04:29:37;;;;;;;12.00;7.60;;;;;;;;;;5078656;28;20421;-87
2021/04/12 04:32:15;;;;;;;22.20;8.93;;;;;;;;;;5078646;28;20033;-85
2021/04/12 04:35:19;;;;;;;13.60;7.70;;;;;;;;;;5078282;28;20115;-87
2021/04/12 04:37:54;;;;;;;13.65;7.50;;;;;;;;;;5002058;28;20034;-86
2021/04/12 04:40:35;;;;;;;18.75;8.05;;;;;;;;;;5001989;28;20375;-86
2021/04/12 04:43:01;;;;;;;19.75;7.95;;;;;;;;;;5020908;28;20041;-86
2021/04/12 04:45:27;;;;;;;11.23;6.88;;;;;;;;;;5098465;28;20020;-87
2021/04/12 04:47:59;;;;;;;12.00;6.72;;;;;;;;;;5081523;28;20020;-87
2021/04/12 04:50:28;;;;;;;12.30;7.68;;;;;;;;;;5098717;28;20039;-87
2021/04/12 04:52:57;;;;;;;14.73;7.97;;;;;;;;;;5098433;28;20031;-86
2021/04/12 04:55:23;;;;;;;13.70;7.18;;;;;;;;;;5098348;28;20043;-87
2021/04/12 04:58:00;;;;;;;14.57;6.55;;;;;;;;;;5080687;28;20342;-86
2021/04/12 05:00:45;;;;;;;19.13;8.02;;;;;;;;;;5098205;28;20023;-87
2021/04/12 05:03:11;;;;;;;19.10;9.07;;;;;;;;;;5098487;28;20055;-88
2021/04/12 05:05:56;;;;;;;17.58;9.50;;;;;;;;;;5080729;28;20115;-89
2021/04/12 05:08:34;;;;;;;17.52;8.77;;;;;;;;;;5117826;27;20034;-88
2021/04/12 05:11:25;;;;;;;17.10;8.35;;;;;;;;;;5141064;27;20025;-89
2021/04/12 05:13:51;;;;;;;18.85;8.93;;;;;;;;;;5140692;27;20031;-89
2021/04/12 05:16:26;;;;;;;12.05;7.47;;;;;;;;;;5139454;27;20027;-88
2021/04/12 05:18:52;;;;;;;16.23;7.05;;;;;;;;;;5139214;27;20039;-88
2021/04/12 05:21:32;;;;;;;17.17;7.40;;;;;;;;;;5139191;27;20047;-89
2021/04/12 05:24:17;;;;;;;13.20;7.28;;;;;;;;;;5140261;27;20048;-87
2021/04/12 05:26:43;;;;;;;13.13;7.60;;;;;;;;;;5140222;27;20077;-87
2021/04/12 05:29:12;;;;;;;14.27;8.07;;;;;;;;;;5139423;27;20015;-87
2021/04/12 05:31:49;;;;;;;21.45;10.20;;;;;;;;;;5140252;27;20413;-86
2021/04/12 05:34:21;;;;;;;23.35;10.65;;;;;;;;;;5140290;27;20031;-86
2021/04/12 05:37:04;;;;;;;26.45;11.02;;;;;;;;;;5139122;27;20427;-87
2021/04/12 05:39:49;;;;;;;14.98;8.00;;;;;;;;;;5138884;27;20429;-87
2021/04/12 05:42:23;;;;;;;12.57;7.15;;;;;;;;;;5139959;27;20317;-89
2021/04/12 05:45:02;;;;;;;13.65;6.40;;;;;;;;;;5139702;27;20389;-89
2021/04/12 05:47:27;;;;;;;14.93;7.00;;;;;;;;;;5139115;27;20144;-86
2021/04/12 05:50:13;;;;;;;12.77;6.60;;;;;;;;;;5138938;27;20059;-89
2021/04/12 05:53:04;;;;;;;14.98;7.18;;;;;;;;;;5139893;27;20031;-90
2021/04/12 05:55:49;;;;;;;11.85;7.53;;;;;;;;;;5139616;27;20066;-89
2021/04/12 05:58:33;;;;;;;18.95;8.23;;;;;;;;;;5140010;27;20060;-88
2021/04/12 06:01:18;;;;;;;29.00;19.52;;;;;;;;;;5139217;27;20080;-76
2021/04/12 06:03:47;;;;;;;19.90;9.35;;;;;;;;;;5138963;27;20458;-75
2021/04/12 06:06:31;;;;;;;14.80;7.70;;;;;;;;;;5137721;27;20027;-76
2021/04/12 06:09:12;;;;;;;14.75;8.13;;;;;;;;;;5138684;27;20023;-76
2021/04/12 06:11:47;;;;;;;19.80;9.23;;;;;;;;;;5138939;27;20432;-76
2021/04/12 06:14:23;;;;;;;14.00;7.53;;;;;;;;;;5139015;27;20027;-79
2021/04/12 06:16:52;;;;;;;14.75;7.85;;;;;;;;;;5138811;27;20027;-77
2021/04/12 06:19:37;;;;;;;18.35;7.10;;;;;;;;;;5139024;27;20110;-76
2021/04/12 06:22:03;;;;;;;18.75;7.57;;;;;;;;;;5138415;27;20059;-77
2021/04/12 06:24:49;;;;;;;12.88;6.50;;;;;;;;;;5137474;27;20039;-77
2021/04/12 06:27:21;;;;;;;15.73;7.60;;;;;;;;;;5138178;27;20034;-76
2021/04/12 06:29:50;;;;;;;14.45;8.27;;;;;;;;;;5138610;27;20065;-76
2021/04/12 06:32:19;;;;;;;13.75;9.18;;;;;;;;;;5138462;27;20397;-76
2021/04/12 06:35:00;;;;;;;13.68;7.55;;;;;;;;;;5137277;27;20118;-76
2021/04/12 06:37:40;;;;;;;11.52;6.63;;;;;;;;;;5138422;27;20023;-76
2021/04/12 06:40:21;;;;;;;16.98;6.95;;;;;;;;;;5138403;27;20027;-76
2021/04/12 06:43:04;;;;;;;18.57;7.93;;;;;;;;;;5138394;27;20023;-76
2021/04/12 06:45:30;;;;;;;16.95;7.40;;;;;;;;;;5138224;27;20027;-76
2021/04/12 06:48:02;;;;;;;16.52;7.75;;;;;;;;;;5138375;27;20044;-76
2021/04/12 06:50:39;;;;;;;16.17;7.25;;;;;;;;;;5138391;27;20122;-76
2021/04/12 06:53:26;;;;;;;11.00;7.35;;;;;;;;;;5138478;27;20024;-76
2021/04/12 06:55:55;;;;;;;16.75;8.48;;;;;;;;;;5138194;27;20412;-76
2021/04/12 06:58:35;;;;;;;14.20;7.35;;;;;;;;;;5138306;27;20106;-76
2021/04/12 07:01:19;;;;;;;24.50;15.38;;;;;;;;;;5137909;27;20027;-75
2021/04/12 07:04:04;;;;;;;16.20;9.85;;;;;;;;;;5138011;27;20110;-76
2021/04/12 07:07:08;;;;;;;15.38;9.18;;;;;;;;;;5138208;27;20019;-76
2021/04/12 07:09:37;;;;;;;16.80;9.20;;;;;;;;;;5075231;28;20040;-76
2021/04/12 07:12:22;;;;;;;16.77;9.68;;;;;;;;;;5075052;28;20023;-76
2021/04/12 07:15:05;;;;;;;19.30;10.18;;;;;;;;;;5058139;28;20044;-80
2021/04/12 07:17:51;;;;;;;17.10;8.05;;;;;;;;;;5074982;28;20040;-77
2021/04/12 07:20:23;;;;;;;13.95;8.48;;;;;;;;;;5014938;28;20048;-77
2021/04/12 07:23:02;;;;;;;16.35;8.07;;;;;;;;;;5001548;28;20038;-77
2021/04/12 07:25:46;;;;;;;19.25;7.90;;;;;;;;;;5019120;28;20034;-77
2021/04/12 07:28:19;;;;;;;16.55;7.72;;;;;;;;;;5019133;28;20034;-77
2021/04/12 07:31:03;;;;;;;17.30;7.72;;;;;;;;;;5019139;28;20052;-76
2021/04/12 07:33:43;;;;;;;12.63;7.50;;;;;;;;;;5019042;28;20026;-76
2021/04/12 07:36:12;;;;;;;13.43;7.75;;;;;;;;;;5018856;28;20157;-77
2021/04/12 07:38:47;;;;;;;11.63;6.47;;;;;;;;;;5018891;28;20108;-76
2021/04/12 07:41:31;;;;;;;12.52;5.88;;;;;;;;;;5089480;28;20329;-76
2021/04/12 07:44:03;;;;;;;13.75;7.15;;;;;;;;;;5098818;28;20035;-76
2021/04/12 07:46:32;;;;;;;12.48;6.72;;;;;;;;;;5098927;28;20028;-77
2021/04/12 07:48:58;;;;;;;11.20;6.35;;;;;;;;;;5081698;28;20069;-76
2021/04/12 07:51:43;;;;;;;12.55;6.00;;;;;;;;;;5098802;28;20111;-77
2021/04/12 07:54:28;;;;;;;12.73;6.43;;;;;;;;;;5081458;28;20032;-77
2021/04/12 07:56:54;;;;;;;12.43;6.65;;;;;;;;;;5112068;27;20042;-77
2021/04/12 07:59:29;;;;;;;10.93;5.95;;;;;;;;;;5141621;27;20027;-77
2021/04/12 08:02:08;;;;;;;9.85;4.78;;;;;;;;;;5141395;27;20023;-77
2021/04/12 08:04:52;;;;;;;26.70;9.80;;;;;;;;;;5141302;27;20072;-77
2021/04/12 08:07:37;;;;;;;14.93;7.53;;;;;;;;;;5140188;27;20397;-76
2021/04/12 08:10:22;;;;;;;17.55;6.10;;;;;;;;;;5141310;27;20022;-77
2021/04/12 08:12:54;;;;;;;13.40;5.95;;;;;;;;;;5140132;27;20089;-77
2021/04/12 08:15:39;;;;;;;10.32;5.15;;;;;;;;;;5141060;27;20031;-77
2021/04/12 08:18:13;;;;;;;7.68;4.63;;;;;;;;;;5141072;27;20034;-77
2021/04/12 08:21:12;;;;;;;13.13;5.95;;;;;;;;;;5140974;27;20062;-77
2021/04/12 08:23:57;;;;;;;18.42;8.55;;;;;;;;;;5077888;28;20412;-79
2021/04/12 08:26:41;;;;;;;16.10;8.48;;;;;;;;;;5077645;28;20040;-76
2021/04/12 08:29:19;;;;;;;11.75;5.80;;;;;;;;;;5077820;28;20311;-77
2021/04/12 08:31:51;;;;;;;12.30;5.65;;;;;;;;;;5077424;28;20062;-77
2021/04/12 08:34:22;;;;;;;15.52;7.57;;;;;;;;;;5060698;28;20058;-77
2021/04/12 08:36:48;;;;;;;12.50;5.35;;;;;;;;;;5077508;28;20062;-77
2021/04/12 08:39:30;;;;;;;12.07;5.35;;;;;;;;;;5060414;28;20028;-77
2021/04/12 08:42:16;;;;;;;10.40;4.67;;;;;;;;;;5077722;28;20430;-77
2021/04/12 08:45:00;;;;;;;17.45;8.57;;;;;;;;;;5077492;28;20044;-77
2021/04/12 08:47:44;;;;;;;8.68;4.85;;;;;;;;;;5060893;28;20024;-78
2021/04/12 08:50:29;;;;;;;9.75;4.75;;;;;;;;;;5077300;28;20105;-77
2021/04/12 08:52:55;;;;;;;11.15;5.72;;;;;;;;;;5060483;28;20367;-77
2021/04/12 08:55:40;;;;;;;9.77;4.40;;;;;;;;;;5077370;28;20055;-77
2021/04/12 08:58:12;;;;;;;14.73;5.85;;;;;;;;;;5079653;28;20433;-77
2021/04/12 09:00:44;;;;;;;8.35;3.97;;;;;;;;;;5140267;27;20019;-77
2021/04/12 09:03:10;;;;;;;;;;;;;;;;;;5140645;27;20464;-77
2021/04/12 09:05:42;;;;;;;12.60;6.20;;;;;;;;;;5140271;27;19998;-77
2021/04/12 09:08:09;;;;;;;;;;;;;;;;;;5140567;27;20320;-77
2021/04/12 09:10:53;;;;;;;6.25;3.55;;;;;;;;;;5140553;27;19942;-78
2021/04/12 09:13:22;;;;;;;10.65;3.92;;;;;;;;;;5140302;27;20103;-77
2021/04/12 09:16:07;;;;;;;10.45;5.57;;;;;;;;;;5139990;27;20029;-77
2021/04/12 09:18:51;;;;;;;13.68;5.63;;;;;;;;;;5139810;27;20031;-77
2021/04/12 09:21:29;;;;;;;31.65;15.95;;;;;;;;;;5139808;27;20134;-77
2021/04/12 09:24:16;;;;;;;21.75;9.75;;;;;;;;;;5139766;27;20413;-77
2021/04/12 09:26:45;;;;;;;11.05;4.68;;;;;;;;;;5139845;27;20051;-77
2021/04/12 09:29:30;;;;;;;10.35;4.75;;;;;;;;;;5139689;27;20027;-78
2021/04/12 09:32:14;;;;;;;10.98;4.22;;;;;;;;;;5139799;27;20153;-78
2021/04/12 09:34:55;;;;;;;10.85;3.63;;;;;;;;;;5139696;27;20019;-77
2021/04/12 09:37:27;;;;;;;6.80;3.42;;;;;;;;;;5139602;27;20050;-78
2021/04/12 09:40:00;;;;;;;13.80;8.27;;;;;;;;;;5139605;27;20101;-77
2021/04/12 09:42:35;;;;;;;11.70;4.25;;;;;;;;;;5139547;27;20440;-77
2021/04/12 09:45:01;;;;;;;12.38;4.88;;;;;;;;;;5138473;27;20035;-77
2021/04/12 09:47:28;;;;;;;9.60;5.43;;;;;;;;;;5139348;27;20020;-77
2021/04/12 09:50:03;;;;;;;76.32;52.45;;;;;;;;;;5137896;27;20059;-78
2021/04/12 09:52:45;;;;;;;16.13;7.38;;;;;;;;;;5139427;27;20126;-78
2021/04/12 09:55:23;;;;;;;12.32;4.60;;;;;;;;;;5139338;27;20030;-77
2021/04/12 09:57:53;;;;;;;24.73;12.00;;;;;;;;;;5139290;27;20023;-77
2021/04/12 10:00:19;;;;;;;23.58;13.10;;;;;;;;;;5139108;27;20016;-77
2021/04/12 10:03:15;;;;;;;28.30;14.35;;;;;;;;;;5139066;27;20404;-77
2021/04/12 10:06:00;;;;;;;13.57;5.47;;;;;;;;;;5139101;27;20038;-77
2021/04/12 10:08:26;;;;;;;61.45;39.47;;;;;;;;;;5138957;27;20316;-78
2021/04/12 10:11:02;;;;;;;24.50;13.20;;;;;;;;;;5138849;27;20019;-77
2021/04/12 10:13:35;;;;;;;19.13;10.85;;;;;;;;;;5137871;27;20034;-78
2021/04/12 10:16:20;;;;;;;21.33;13.00;;;;;;;;;;5138802;27;20110;-77
2021/04/12 10:18:56;;;;;;;26.23;7.25;;;;;;;;;;5137731;27;20412;-77
2021/04/12 10:21:25;;;;;;;12.02;6.43;;;;;;;;;;5138422;27;20345;-77
2021/04/12 10:23:53;;;;;;;19.42;11.75;;;;;;;;;;5138795;27;20370;-77
2021/04/12 10:26:28;;;;;;;11.55;5.55;;;;;;;;;;5138665;27;20023;-77
2021/04/12 10:29:03;;;;;;;24.20;11.75;;;;;;;;;;5138646;27;20428;-78
2021/04/12 10:31:30;;;;;;;21.23;10.50;;;;;;;;;;5138590;27;20417;-77
2021/04/12 10:34:15;;;;;;;15.45;6.93;;;;;;;;;;5137738;27;20298;-77
2021/04/12 10:37:00;;;;;;;23.95;12.40;;;;;;;;;;5138534;27;20367;-76
2021/04/12 10:39:33;;;;;;;15.68;7.47;;;;;;;;;;5138570;27;20061;-76
2021/04/12 10:42:08;;;;;;;25.77;9.63;;;;;;;;;;5138335;27;20037;-77
2021/04/12 10:44:49;;;;;;;14.85;7.13;;;;;;;;;;5138137;27;20099;-77
2021/04/12 10:47:22;;;;;;;15.82;5.78;;;;;;;;;;5138831;27;20015;-77
2021/04/12 10:50:00;;;;;;;55.50;36.72;;;;;;;;;;5138494;27;20024;-77
2021/04/12 10:52:26;;;;;;;16.50;8.80;;;;;;;;;;5138365;27;20068;-77
2021/04/12 10:55:06;;;;;;;18.30;7.38;;;;;;;;;;5138388;27;20029;-77
2021/04/12 10:57:32;;;;;;;13.10;4.85;;;;;;;;;;5138120;27;20453;-77
2021/04/12 11:00:13;;;;;;;14.57;6.57;;;;;;;;;;5138363;27;20064;-76
2021/04/12 11:02:59;;;;;;;10.83;6.50;;;;;;;;;;5138234;27;20043;-77
2021/04/12 11:05:29;;;;;;;14.32;8.30;;;;;;;;;;5137978;27;20278;-77
2021/04/12 11:08:05;;;;;;;11.10;3.80;;;;;;;;;;5136915;27;20050;-77
2021/04/12 11:10:50;;;;;;;21.67;13.23;;;;;;;;;;5138187;27;20023;-78
2021/04/12 11:13:31;;;;;;;14.35;6.85;;;;;;;;;;5138269;28;20043;-77
2021/04/12 11:16:26;;;;;;;9.77;3.67;;;;;;;;;;5137884;27;20098;-77
2021/04/12 11:19:04;;;;;;;19.00;11.02;;;;;;;;;;5074874;28;20029;-77
2021/04/12 11:21:30;;;;;;;11.73;4.80;;;;;;;;;;5074731;28;20132;-78
2021/04/12 11:23:56;;;;;;;18.48;7.03;;;;;;;;;;5074840;28;20164;-77
2021/04/12 11:26:35;;;;;;;25.63;4.10;;;;;;;;;;5074868;28;20053;-77
2021/04/12 11:29:20;;;;;;;11.55;3.40;;;;;;;;;;5074904;28;20353;-78
2021/04/12 11:31:46;;;;;;;10.55;4.20;;;;;;;;;;5075091;28;20035;-77
2021/04/12 11:34:22;;;;;;;8.05;3.95;;;;;;;;;;5074799;28;20028;-77
2021/04/12 11:37:07;;;;;;;10.98;3.38;;;;;;;;;;5074731;28;20335;-77
2021/04/12 11:39:37;;;;;;;18.15;9.20;;;;;;;;;;5074866;28;20039;-77
2021/04/12 11:42:08;;;;;;;17.08;8.02;;;;;;;;;;5074601;28;20073;-77
2021/04/12 11:44:37;;;;;;;74.82;11.18;;;;;;;;;;5074823;28;20330;-77
2021/04/12 11:47:22;;;;;;;24.88;9.45;;;;;;;;;;5074688;28;20028;-77
2021/04/12 11:49:48;;;;;;;12.70;6.20;;;;;;;;;;5074441;28;20442;-77
2021/04/12 11:52:18;;;;;;;22.05;9.90;;;;;;;;;;5074629;28;20028;-77
2021/04/12 11:54:53;;;;;;;10.43;3.90;;;;;;;;;;5078478;28;20031;-77
2021/04/12 11:57:22;;;;;;;11.57;5.05;;;;;;;;;;5137645;28;20285;-77
2021/04/12 11:59:51;;;;;;;19.35;11.63;;;;;;;;;;5137502;28;20027;-77
2021/04/12 12:02:26;;;;;;;12.52;4.03;;;;;;;;;;5137466;28;20102;-77
2021/04/12 12:04:59;;;;;;;18.38;9.00;;;;;;;;;;5136414;28;20023;-77
2021/04/12 12:07:41;;;;;;;11.23;4.25;;;;;;;;;;5137924;27;20094;-77
2021/04/12 12:10:10;;;;;;;17.23;6.80;;;;;;;;;;5141518;27;20023;-76
2021/04/12 12:12:45;;;;;;;15.18;5.88;;;;;;;;;;5140206;27;20324;-76
2021/04/12 12:15:14;;;;;;;11.18;4.75;;;;;;;;;;5141239;27;20068;-76
2021/04/12 12:17:44;;;;;;;16.08;5.80;;;;;;;;;;5140073;27;20086;-77
2021/04/12 12:20:28;;;;;;;11.55;6.28;;;;;;;;;;5140939;27;20037;-76
2021/04/12 12:23:00;;;;;;;8.70;3.08;;;;;;;;;;5141094;27;20050;-77
2021/04/12 12:25:28;;;;;;;18.23;10.23;;;;;;;;;;5140926;27;20353;-76
2021/04/12 12:28:05;;;;;;;14.30;6.90;;;;;;;;;;5139874;27;20030;-77
2021/04/12 12:30:31;;;;;;;22.67;11.98;;;;;;;;;;5140864;27;20042;-77
2021/04/12 12:32:57;;;;;;;22.23;9.77;;;;;;;;;;5141026;27;20102;-77
2021/04/12 12:35:28;;;;;;;16.38;7.80;;;;;;;;;;5139702;27;20403;-77
2021/04/12 12:38:27;;;;;;;18.08;9.23;;;;;;;;;;5140598;27;20051;-77
2021/04/12 12:40:57;;;;;;;13.52;7.03;;;;;;;;;;5077616;28;20036;-77
2021/04/12 12:43:30;;;;;;;20.48;6.50;;;;;;;;;;5077612;28;20036;-77
2021/04/12 12:46:04;;;;;;;11.98;3.90;;;;;;;;;;5077608;28;20123;-77
2021/04/12 12:48:33;;;;;;;15.73;6.05;;;;;;;;;;5060463;28;20430;-76
2021/04/12 12:51:14;;;;;;;32.20;18.90;;;;;;;;;;5060481;28;20064;-76
2021/04/12 12:53:45;;;;;;;11.98;3.63;;;;;;;;;;5077447;28;20159;-77
2021/04/12 12:56:31;;;;;;;14.45;5.05;;;;;;;;;;5077135;28;20303;-77
2021/04/12 12:59:00;;;;;;;17.15;8.38;;;;;;;;;;5077100;28;20017;-77
2021/04/12 13:01:28;;;;;;;13.55;4.97;;;;;;;;;;5077251;28;20021;-77
2021/04/12 13:03:56;;;;;;;17.67;7.28;;;;;;;;;;5077114;28;20407;-77
2021/04/12 13:06:27;;;;;;;13.85;5.63;;;;;;;;;;5077108;28;20123;-77
2021/04/12 13:08:56;;;;;;;11.48;5.22;;;;;;;;;;5077039;28;20031;-76
2021/04/12 13:11:43;;;;;;;15.93;5.00;;;;;;;;;;5077113;28;20025;-76
2021/04/12 13:14:09;;;;;;;14.18;5.40;;;;;;;;;;5076709;28;20402;-77
2021/04/12 13:16:35;;;;;;;15.95;6.18;;;;;;;;;;5112553;27;20031;-77
2021/04/12 13:19:05;;;;;;;33.45;18.92;;;;;;;;;;5140256;27;20118;-77
2021/04/12 13:21:33;;;;;;;11.02;4.28;;;;;;;;;;5139689;27;20054;-77
2021/04/12 13:24:18;;;;;;;24.90;15.43;;;;;;;;;;5139905;27;20041;-76
2021/04/12 13:26:59;;;;;;;12.98;4.20;;;;;;;;;;5140015;27;20065;-76
2021/04/12 13:29:26;;;;;;;26.98;12.05;;;;;;;;;;5138699;27;20106;-76
2021/04/12 13:31:55;;;;;;;21.38;11.95;;;;;;;;;;5138994;27;20023;-79
2021/04/12 13:34:38;;;;;;;20.17;7.28;;;;;;;;;;5139489;27;20027;-80
2021/04/12 13:37:11;;;;;;;15.73;7.57;;;;;;;;;;5139481;27;20408;-75
2021/04/12 13:39:37;;;;;;;13.82;6.82;;;;;;;;;;5139522;27;20029;-76
2021/04/12 13:42:09;;;;;;;13.93;5.05;;;;;;;;;;5139585;27;20409;-76
2021/04/12 13:44:35;;;;;;;12.98;5.20;;;;;;;;;;5139414;27;20066;-76
2021/04/12 13:47:09;;;;;;;14.23;6.15;;;;;;;;;;5139531;27;20023;-76
2021/04/12 13:49:35;;;;;;;12.23;4.90;;;;;;;;;;5139582;27;20023;-76
2021/04/12 13:52:06;;;;;;;19.95;6.82;;;;;;;;;;5138243;27;20473;-76
2021/04/12 13:54:38;;;;;;;13.93;6.10;;;;;;;;;;5138334;27;20035;-76
2021/04/12 13:57:13;;;;;;;15.93;5.57;;;;;;;;;;5138930;27;20038;-76
2021/04/12 13:59:41;;;;;;;14.50;3.80;;;;;;;;;;5139207;27;20027;-76
2021/04/12 14:02:27;;;;;;;16.83;5.00;;;;;;;;;;5139077;27;20108;-77
2021/04/12 14:04:56;;;;;;;17.00;5.30;;;;;;;;;;5138856;27;20023;-76
2021/04/12 14:07:38;;;;;;;11.85;4.18;;;;;;;;;;5138928;27;20023;-76
2021/04/12 14:10:16;;;;;;;11.27;4.53;;;;;;;;;;5137955;27;20031;-76
2021/04/12 14:12:51;;;;;;;14.63;4.25;;;;;;;;;;5138829;27;20034;-77
2021/04/12 14:15:23;;;;;;;15.95;5.97;;;;;;;;;;5138734;27;20023;-77
2021/04/12 14:17:56;;;;;;;19.33;5.85;;;;;;;;;;5138766;27;20040;-77
2021/04/12 14:20:29;;;;;;;16.35;4.45;;;;;;;;;;5138433;27;20333;-77
2021/04/12 14:23:00;;;;;;;12.70;4.55;;;;;;;;;;5138589;27;20030;-76
2021/04/12 14:25:28;;;;;;;;;;;;;;;;;;5137448;27;20047;-77
2021/04/12 14:28:14;;;;;;;13.45;4.85;;;;;;;;;;5138884;27;19935;-77
2021/04/12 14:31:04;;;;;;;19.58;8.82;;;;;;;;;;5138281;27;20413;-77
2021/04/12 14:33:31;;;;;;;20.33;7.57;;;;;;;;;;5058693;28;20040;-77
2021/04/12 14:36:02;;;;;;;11.73;3.78;;;;;;;;;;5075462;28;20044;-77
2021/04/12 14:38:29;;;;;;;15.25;4.03;;;;;;;;;;5075394;28;20525;-77
2021/04/12 14:41:10;;;;;;;16.00;4.30;;;;;;;;;;5075397;28;20029;-77
2021/04/12 14:43:37;;;;;;;15.75;4.47;;;;;;;;;;5075384;28;20036;-77
2021/04/12 14:46:06;;;;;;;10.68;3.92;;;;;;;;;;5075119;28;20104;-77
2021/04/12 14:48:36;;;;;;;15.05;4.25;;;;;;;;;;5058045;28;20039;-77
2021/04/12 14:51:16;;;;;;;12.00;4.32;;;;;;;;;;5075193;28;20044;-77
2021/04/12 14:53:47;;;;;;;8.35;3.78;;;;;;;;;;5075288;28;20025;-77
2021/04/12 14:56:31;;;;;;;9.55;3.67;;;;;;;;;;5058013;28;20435;-77
2021/04/12 14:58:58;;;;;;;12.93;4.75;;;;;;;;;;5075189;28;20028;-77
2021/04/12 15:01:31;;;;;;;14.57;4.63;;;;;;;;;;5075118;28;20020;-77
2021/04/12 15:04:01;;;;;;;16.38;6.28;;;;;;;;;;5058210;28;20167;-77
2021/04/12 15:06:33;;;;;;;10.85;4.38;;;;;;;;;;5075190;28;20032;-77
2021/04/12 15:09:01;;;;;;;12.57;4.22;;;;;;;;;;5075311;28;20017;-77
2021/04/12 15:11:29;;;;;;;13.23;4.47;;;;;;;;;;5132605;28;20040;-77
2021/04/12 15:14:02;;;;;;;11.05;3.65;;;;;;;;;;5138058;28;20305;-77
2021/04/12 15:16:28;;;;;;;12.93;4.53;;;;;;;;;;5136998;28;20114;-77
2021/04/12 15:19:15;;;;;;;14.80;3.95;;;;;;;;;;5138085;27;20035;-77
2021/04/12 15:21:45;;;;;;;14.15;4.07;;;;;;;;;;5136640;27;20254;-77